createdAt,value
2018-10-21T00:00:17.319Z,5.10
2018-10-21T00:02:54.000Z,5.10
2018-10-21T00:05:30.158Z,5.20
2018-10-21T00:08:09.067Z,5.00
2018-10-21T00:10:45.214Z,5.00
2018-10-21T00:13:21.908Z,5.00
2018-10-21T00:15:58.137Z,4.80
2018-10-21T00:18:37.487Z,4.70
2018-10-21T00:21:22.034Z,4.80
2018-10-21T00:24:01.144Z,4.70
2018-10-21T00:26:36.989Z,4.50
2018-10-21T00:29:12.996Z,4.70
2018-10-21T00:31:49.976Z,4.80
2018-10-21T00:34:27.293Z,4.90
2018-10-21T00:37:06.444Z,4.80
2018-10-21T00:39:42.448Z,4.80
2018-10-21T00:42:17.697Z,4.60
2018-10-21T00:44:55.132Z,4.40
2018-10-21T00:47:31.107Z,4.30
2018-10-21T00:50:15.552Z,4.20
2018-10-21T00:52:55.917Z,4.20
2018-10-21T00:55:36.127Z,4.10
2018-10-21T00:58:12.023Z,4.00
2018-10-21T01:00:49.521Z,4.10
2018-10-21T01:03:25.661Z,4.00
2018-10-21T01:06:08.551Z,4.10
2018-10-21T01:08:45.738Z,4.10
2018-10-21T01:11:19.917Z,4.00
2018-10-21T01:13:57.573Z,3.90
2018-10-21T01:16:34.691Z,3.80
2018-10-21T01:19:16.621Z,3.90
2018-10-21T01:21:54.707Z,4.20
2018-10-21T01:24:34.228Z,4.30
2018-10-21T01:27:10.598Z,4.50
2018-10-21T01:29:48.386Z,4.40
2018-10-21T01:32:24.029Z,4.40
2018-10-21T01:34:59.441Z,4.40
2018-10-21T01:37:35.608Z,4.30
2018-10-21T01:40:45.245Z,4.30
2018-10-21T01:43:22.439Z,4.40
2018-10-21T01:45:58.832Z,4.40
2018-10-21T01:48:34.756Z,4.40
2018-10-21T01:51:09.382Z,4.50
2018-10-21T01:53:45.595Z,4.60
2018-10-21T01:56:21.308Z,4.70
2018-10-21T01:58:56.673Z,4.80
2018-10-21T02:01:32.609Z,5.00
2018-10-21T02:04:08.262Z,5.10
2018-10-21T02:06:44.622Z,5.10
2018-10-21T02:09:20.576Z,5.20
2018-10-21T02:11:56.228Z,5.10
2018-10-21T02:14:32.053Z,5.20
2018-10-21T02:17:10.501Z,5.20
2018-10-21T02:19:46.666Z,5.20
2018-10-21T02:22:22.700Z,5.10
2018-10-21T02:24:58.434Z,5.00
2018-10-21T02:27:34.025Z,4.90
2018-10-21T02:30:13.234Z,4.90
2018-10-21T02:32:50.195Z,4.80
2018-10-21T02:35:26.150Z,4.70
2018-10-21T02:38:02.343Z,4.70
2018-10-21T02:41:46.672Z,4.70
2018-10-21T02:44:22.977Z,4.60
2018-10-21T02:46:58.940Z,4.40
2018-10-21T02:49:34.937Z,4.20
2018-10-21T02:52:13.528Z,4.10
2018-10-21T02:54:49.382Z,4.10
2018-10-21T02:57:25.201Z,4.10
2018-10-21T03:00:01.032Z,3.90
2018-10-21T03:02:37.106Z,3.90
2018-10-21T03:05:13.980Z,3.90
2018-10-21T03:07:49.787Z,3.90
2018-10-21T03:10:25.404Z,4.00
2018-10-21T03:13:01.560Z,3.90
2018-10-21T03:15:37.436Z,3.80
2018-10-21T03:18:13.704Z,3.70
2018-10-21T03:20:48.224Z,3.70
2018-10-21T03:23:23.578Z,3.70
2018-10-21T03:26:00.521Z,3.70
2018-10-21T03:28:36.851Z,3.60
2018-10-21T03:31:13.156Z,3.70
2018-10-21T03:33:48.572Z,3.60
2018-10-21T03:39:06.910Z,3.60
2018-10-21T03:41:42.250Z,3.60
2018-10-21T03:44:17.327Z,3.60
2018-10-21T03:46:53.456Z,3.60
2018-10-21T03:49:30.331Z,3.70
2018-10-21T03:52:06.303Z,3.80
2018-10-21T03:54:45.586Z,3.80
2018-10-21T03:57:22.250Z,3.80
2018-10-21T03:59:57.870Z,3.80
2018-10-21T04:02:33.614Z,3.80
2018-10-21T04:05:10.597Z,3.90
2018-10-21T04:07:45.762Z,3.90
2018-10-21T04:10:21.552Z,3.90
2018-10-21T04:12:57.909Z,3.90
2018-10-21T04:15:33.093Z,3.80
2018-10-21T04:18:09.063Z,3.70
2018-10-21T04:20:45.254Z,3.70
2018-10-21T04:23:22.860Z,3.70
2018-10-21T04:25:58.016Z,3.60
2018-10-21T04:28:33.492Z,3.40
2018-10-21T04:31:09.715Z,3.40
2018-10-21T04:33:46.164Z,3.30
2018-10-21T04:36:29.934Z,3.40
2018-10-21T04:39:42.418Z,3.50
2018-10-21T04:42:17.632Z,3.50
2018-10-21T04:44:52.898Z,3.50
2018-10-21T04:47:28.750Z,3.40
2018-10-21T04:50:04.212Z,3.30
2018-10-21T04:52:39.671Z,3.30
2018-10-21T04:55:16.913Z,3.30
2018-10-21T05:00:30.482Z,3.30
2018-10-21T05:03:06.032Z,3.40
2018-10-21T05:05:41.481Z,3.50
2018-10-21T05:08:17.320Z,3.50
2018-10-21T05:10:52.966Z,3.40
2018-10-21T05:13:28.511Z,3.40
2018-10-21T05:16:04.116Z,3.50
2018-10-21T05:18:39.252Z,3.60
2018-10-21T05:21:15.031Z,3.60
2018-10-21T05:26:27.106Z,3.70
2018-10-21T05:29:02.720Z,3.70
2018-10-21T05:31:38.912Z,3.70
2018-10-21T05:34:14.731Z,3.70
2018-10-21T05:36:50.550Z,3.70
2018-10-21T05:39:26.138Z,3.80
2018-10-21T05:42:01.354Z,3.90
2018-10-21T05:44:36.862Z,4.20
2018-10-21T05:47:12.659Z,4.20
2018-10-21T05:49:48.675Z,4.20
2018-10-21T05:52:24.285Z,4.20
2018-10-21T05:54:59.871Z,4.30
2018-10-21T05:57:36.072Z,4.30
2018-10-21T06:00:14.436Z,4.40
2018-10-21T06:02:49.894Z,4.30
2018-10-21T06:05:37.137Z,4.40
2018-10-21T06:08:13.291Z,4.50
2018-10-21T06:10:48.865Z,4.60
2018-10-21T06:13:24.369Z,4.60
2018-10-21T06:16:00.910Z,4.60
2018-10-21T06:18:40.188Z,4.60
2018-10-21T06:21:15.811Z,4.70
2018-10-21T06:23:51.728Z,4.80
2018-10-21T06:26:27.699Z,4.80
2018-10-21T06:29:03.670Z,5.00
2018-10-21T06:31:38.501Z,5.10
2018-10-21T06:34:13.531Z,5.10
2018-10-21T06:36:54.387Z,5.20
2018-10-21T06:39:29.332Z,5.30
2018-10-21T06:42:08.678Z,5.50
2018-10-21T06:44:43.515Z,5.50
2018-10-21T06:47:24.252Z,5.70
2018-10-21T06:49:59.100Z,5.70
2018-10-21T06:52:34.020Z,5.70
2018-10-21T06:55:08.853Z,5.80
2018-10-21T06:57:44.477Z,5.80
2018-10-21T07:00:19.161Z,5.90
2018-10-21T07:06:43.648Z,6.10
2018-10-21T07:09:18.561Z,6.20
2018-10-21T07:11:53.219Z,6.40
2018-10-21T07:14:27.868Z,6.50
2018-10-21T07:17:02.847Z,6.60
2018-10-21T07:19:37.737Z,6.60
2018-10-21T07:22:12.698Z,6.70
2018-10-21T07:24:47.987Z,6.70
2018-10-21T07:27:22.980Z,6.80
2018-10-21T07:29:57.966Z,6.80
2018-10-21T07:32:32.978Z,6.90
2018-10-21T07:35:09.206Z,7.00
2018-10-21T07:37:44.634Z,7.20
2018-10-21T07:40:19.888Z,7.30
2018-10-21T07:43:00.650Z,7.30
2018-10-21T07:45:35.848Z,7.30
2018-10-21T07:48:11.439Z,7.40
2018-10-21T07:50:47.433Z,7.30
2018-10-21T07:53:22.556Z,7.40
2018-10-21T07:55:57.291Z,7.40
2018-10-21T07:58:32.582Z,7.40
2018-10-21T08:01:08.162Z,7.50
2018-10-21T08:03:44.067Z,7.70
2018-10-21T08:06:32.185Z,7.70
2018-10-21T08:09:08.696Z,7.70
2018-10-21T08:11:44.014Z,7.70
2018-10-21T08:14:19.078Z,7.70
2018-10-21T08:16:54.155Z,7.70
2018-10-21T08:19:29.402Z,7.60
2018-10-21T08:22:04.159Z,7.70
2018-10-21T08:24:38.898Z,7.90
2018-10-21T08:27:14.441Z,8.10
2018-10-21T08:29:49.373Z,8.40
2018-10-21T08:32:24.494Z,8.50
2018-10-21T08:34:59.391Z,8.80
2018-10-21T08:37:34.445Z,8.90
2018-10-21T08:40:11.204Z,9.00
2018-10-21T08:42:46.725Z,9.10
2018-10-21T08:45:22.207Z,9.00
2018-10-21T08:47:57.767Z,9.10
2018-10-21T08:50:32.858Z,9.20
2018-10-21T08:53:07.752Z,9.20
2018-10-21T08:55:43.238Z,9.20
2018-10-21T08:58:18.756Z,9.30
2018-10-21T09:00:53.896Z,9.60
2018-10-21T09:03:28.613Z,10.30
2018-10-21T09:06:03.773Z,11.00
2018-10-21T09:08:38.862Z,11.20
2018-10-21T09:11:14.428Z,11.40
2018-10-21T09:13:49.627Z,11.60
2018-10-21T09:16:25.151Z,11.80
2018-10-21T09:19:01.016Z,12.00
2018-10-21T09:21:36.453Z,12.00
2018-10-21T09:24:11.660Z,12.30
2018-10-21T09:26:46.767Z,12.40
2018-10-21T09:29:21.989Z,12.50
2018-10-21T09:31:57.262Z,12.90
2018-10-21T09:34:32.310Z,13.60
2018-10-21T09:37:07.880Z,13.50
2018-10-21T09:39:43.640Z,14.00
2018-10-21T09:42:22.923Z,14.40
2018-10-21T09:44:57.926Z,14.20
2018-10-21T09:47:33.497Z,14.10
2018-10-21T09:50:08.638Z,14.60
2018-10-21T09:52:44.418Z,15.60
2018-10-21T09:55:20.499Z,16.00
2018-10-21T09:57:55.788Z,16.10
2018-10-21T10:00:36.077Z,16.30
2018-10-21T10:03:11.063Z,16.20
2018-10-21T10:05:45.807Z,16.50
2018-10-21T10:08:20.524Z,16.70
2018-10-21T10:10:55.331Z,17.40
2018-10-21T10:13:30.122Z,17.90
2018-10-21T10:16:04.944Z,18.00
2018-10-21T10:18:39.578Z,18.20
2018-10-21T10:21:14.136Z,18.10
2018-10-21T10:23:48.606Z,18.20
2018-10-21T10:26:23.368Z,18.60
2018-10-21T10:28:58.122Z,18.70
2018-10-21T10:31:32.678Z,18.90
2018-10-21T10:34:07.121Z,18.30
2018-10-21T10:36:41.877Z,17.80
2018-10-21T10:39:16.862Z,18.20
2018-10-21T10:41:51.566Z,18.00
2018-10-21T10:44:26.279Z,18.80
2018-10-21T10:47:01.694Z,18.30
2018-10-21T10:49:36.477Z,18.30
2018-10-21T10:52:12.410Z,18.10
2018-10-21T10:54:47.236Z,18.80
2018-10-21T10:57:25.496Z,19.00
2018-10-21T11:00:00.352Z,18.90
2018-10-21T11:02:35.326Z,19.10
2018-10-21T11:05:10.463Z,19.20
2018-10-21T11:07:45.022Z,19.10
2018-10-21T11:10:19.631Z,19.00
2018-10-21T11:12:54.972Z,19.10
2018-10-21T11:15:29.714Z,19.20
2018-10-21T11:18:04.522Z,19.30
2018-10-21T11:20:39.351Z,19.20
2018-10-21T11:23:14.128Z,19.30
2018-10-21T11:25:48.857Z,18.80
2018-10-21T11:28:23.693Z,18.90
2018-10-21T11:30:58.398Z,19.30
2018-10-21T11:33:33.039Z,19.50
2018-10-21T11:36:07.620Z,19.30
2018-10-21T11:38:42.291Z,19.50
2018-10-21T11:41:16.767Z,19.40
2018-10-21T11:43:51.498Z,19.50
2018-10-21T11:46:26.330Z,19.60
2018-10-21T11:49:00.798Z,19.60
2018-10-21T11:51:35.393Z,19.60
2018-10-21T11:54:14.462Z,19.80
2018-10-21T11:56:49.247Z,19.40
2018-10-21T11:59:24.007Z,19.30
2018-10-21T12:01:58.832Z,19.60
2018-10-21T12:04:34.028Z,19.30
2018-10-21T12:07:08.844Z,19.30
2018-10-21T12:09:43.446Z,19.20
2018-10-21T12:12:18.308Z,19.40
2018-10-21T12:14:54.146Z,19.60
2018-10-21T12:17:32.027Z,19.50
2018-10-21T12:20:07.905Z,19.20
2018-10-21T12:22:42.638Z,19.10
2018-10-21T12:25:17.921Z,19.00
2018-10-21T12:27:53.364Z,19.10
2018-10-21T12:30:28.771Z,19.40
2018-10-21T12:33:03.522Z,19.40
2018-10-21T12:35:38.341Z,19.50
2018-10-21T12:38:13.012Z,19.90
2018-10-21T12:40:47.646Z,19.90
2018-10-21T12:43:22.287Z,19.50
2018-10-21T12:45:57.159Z,19.50
2018-10-21T12:48:32.544Z,19.80
2018-10-21T12:51:07.061Z,20.20
2018-10-21T12:53:43.806Z,19.80
2018-10-21T12:56:18.797Z,19.80
2018-10-21T12:58:53.597Z,20.20
2018-10-21T13:01:30.237Z,20.40
2018-10-21T13:04:13.103Z,20.20
2018-10-21T13:06:49.025Z,20.30
2018-10-21T13:09:24.326Z,20.30
2018-10-21T13:11:58.912Z,20.30
2018-10-21T13:14:36.154Z,20.50
2018-10-21T13:17:11.788Z,20.10
2018-10-21T13:19:46.621Z,20.20
2018-10-21T13:22:21.516Z,20.00
2018-10-21T13:24:56.327Z,20.50
2018-10-21T13:27:30.876Z,20.90
2018-10-21T13:30:06.630Z,21.30
2018-10-21T13:32:42.183Z,21.80
2018-10-21T13:35:16.640Z,22.20
2018-10-21T13:37:51.286Z,22.40
2018-10-21T13:40:26.331Z,22.40
2018-10-21T13:43:01.000Z,22.70
2018-10-21T13:45:38.479Z,22.50
2018-10-21T13:48:14.236Z,22.40
2018-10-21T13:50:49.299Z,22.80
2018-10-21T13:53:23.909Z,23.10
2018-10-21T13:55:58.756Z,23.70
2018-10-21T13:58:33.531Z,23.50
2018-10-21T14:01:08.161Z,23.80
2018-10-21T14:03:42.628Z,23.30
2018-10-21T14:06:17.162Z,24.10
2018-10-21T14:08:51.789Z,24.00
2018-10-21T14:11:26.394Z,23.90
2018-10-21T14:14:00.984Z,24.30
2018-10-21T14:16:35.944Z,24.50
2018-10-21T14:19:10.704Z,24.00
2018-10-21T14:21:45.293Z,24.00
2018-10-21T14:24:20.170Z,23.60
2018-10-21T14:26:54.804Z,23.10
2018-10-21T14:29:30.409Z,23.00
2018-10-21T14:32:05.237Z,23.00
2018-10-21T14:34:40.744Z,23.70
2018-10-21T14:37:15.470Z,23.50
2018-10-21T14:39:50.613Z,23.60
2018-10-21T14:42:25.470Z,23.20
2018-10-21T14:44:59.835Z,22.90
2018-10-21T14:47:34.623Z,23.00
2018-10-21T14:50:09.694Z,23.10
2018-10-21T14:52:44.310Z,23.30
2018-10-21T14:55:19.342Z,23.60
2018-10-21T14:57:55.648Z,23.40
2018-10-21T15:00:31.111Z,22.60
2018-10-21T15:03:07.030Z,22.40
2018-10-21T15:05:42.019Z,22.80
2018-10-21T15:08:18.958Z,22.70
2018-10-21T15:10:55.273Z,22.80
2018-10-21T15:13:38.919Z,23.30
2018-10-21T15:16:13.962Z,23.00
2018-10-21T15:18:48.957Z,23.10
2018-10-21T15:21:27.098Z,22.90
2018-10-21T15:24:01.689Z,22.70
2018-10-21T15:26:37.436Z,22.30
2018-10-21T15:29:13.486Z,22.00
2018-10-21T15:31:48.935Z,21.00
2018-10-21T15:34:30.114Z,20.30
2018-10-21T15:37:08.132Z,19.30
2018-10-21T15:39:44.890Z,18.50
2018-10-21T15:42:19.826Z,18.10
2018-10-21T15:44:54.661Z,17.30
2018-10-21T15:47:29.401Z,16.70
2018-10-21T15:50:04.721Z,16.50
2018-10-21T15:52:40.238Z,16.20
2018-10-21T15:55:14.908Z,16.00
2018-10-21T15:57:51.430Z,15.70
2018-10-21T16:00:28.041Z,15.40
2018-10-21T16:03:03.001Z,15.30
2018-10-21T16:05:39.527Z,15.20
2018-10-21T16:08:14.319Z,14.80
2018-10-21T16:10:54.376Z,14.50
2018-10-21T16:13:29.738Z,14.30
2018-10-21T16:16:05.124Z,14.10
2018-10-21T16:18:40.641Z,13.90
2018-10-21T16:21:16.087Z,13.70
2018-10-21T16:26:10.951Z,13.50
2018-10-21T16:28:45.806Z,13.00
2018-10-21T16:31:21.475Z,12.80
2018-10-21T16:33:58.151Z,12.70
2018-10-21T16:36:33.213Z,12.50
2018-10-21T16:39:10.497Z,12.30
2018-10-21T16:41:48.070Z,12.10
2018-10-21T16:44:24.481Z,11.80
2018-10-21T16:47:00.140Z,11.70
2018-10-21T16:49:35.014Z,11.60
2018-10-21T16:52:11.442Z,11.60
2018-10-21T16:54:46.195Z,11.50
2018-10-21T16:57:20.999Z,11.40
2018-10-21T16:59:57.963Z,11.20
2018-10-21T17:02:33.221Z,11.10
2018-10-21T17:05:10.730Z,10.90
2018-10-21T17:07:46.579Z,10.90
2018-10-21T17:10:24.178Z,10.80
2018-10-21T17:13:05.182Z,10.80
2018-10-21T17:15:40.566Z,10.60
2018-10-21T17:18:15.593Z,10.50
2018-10-21T17:20:51.776Z,10.30
2018-10-21T17:23:29.069Z,10.20
2018-10-21T17:26:06.040Z,10.10
2018-10-21T17:28:41.314Z,9.90
2018-10-21T17:31:16.382Z,9.70
2018-10-21T17:33:52.047Z,9.60
2018-10-21T17:36:28.551Z,9.40
2018-10-21T17:39:08.100Z,9.30
2018-10-21T17:41:43.887Z,9.30
2018-10-21T17:44:19.548Z,9.10
2018-10-21T17:46:57.456Z,8.90
2018-10-21T17:49:35.352Z,8.80
2018-10-21T17:52:14.626Z,8.70
2018-10-21T17:54:51.443Z,8.60
2018-10-21T17:57:28.274Z,8.50
2018-10-21T18:00:03.376Z,8.30
2018-10-21T18:02:40.156Z,8.10
2018-10-21T18:05:15.242Z,7.90
2018-10-21T18:07:51.994Z,7.80
2018-10-21T18:10:26.698Z,7.80
2018-10-21T18:13:01.274Z,7.70
2018-10-21T18:15:36.457Z,7.60
2018-10-21T18:18:11.191Z,7.60
2018-10-21T18:23:24.247Z,7.50
2018-10-21T18:25:59.157Z,7.50
2018-10-21T18:28:34.780Z,7.50
2018-10-21T18:31:14.708Z,7.40
2018-10-21T18:33:50.786Z,7.30
2018-10-21T18:36:29.711Z,7.30
2018-10-21T18:39:08.367Z,7.20
2018-10-21T18:41:43.952Z,7.20
2018-10-21T18:44:20.957Z,7.10
2018-10-21T18:46:58.861Z,7.00
2018-10-21T18:49:36.992Z,6.80
2018-10-21T18:52:13.823Z,6.70
2018-10-21T18:54:55.419Z,6.50
2018-10-21T18:57:30.643Z,6.50
2018-10-21T19:00:17.295Z,6.60
2018-10-21T19:02:53.455Z,6.40
2018-10-21T19:05:30.219Z,6.20
2018-10-21T19:08:08.152Z,6.00
2018-10-21T19:10:43.656Z,5.80
2018-10-21T19:13:18.696Z,5.70
2018-10-21T19:15:57.927Z,5.70
2018-10-21T19:18:34.618Z,5.70
2018-10-21T19:21:10.503Z,5.80
2018-10-21T19:23:48.088Z,5.80
2018-10-21T19:26:26.161Z,5.60
2018-10-21T19:29:01.166Z,5.60
2018-10-21T19:31:36.801Z,5.60
2018-10-21T19:34:13.815Z,5.50
2018-10-21T19:36:49.121Z,5.50
2018-10-21T19:39:24.666Z,5.50
2018-10-21T19:41:59.356Z,5.30
2018-10-21T19:44:34.929Z,5.10
2018-10-21T19:47:11.463Z,4.90
2018-10-21T19:49:48.434Z,4.80
2018-10-21T19:52:24.734Z,4.70
2018-10-21T19:54:59.384Z,4.90
2018-10-21T19:57:34.442Z,4.90
2018-10-21T20:00:13.352Z,4.90
2018-10-21T20:02:48.208Z,4.90
2018-10-21T20:05:24.605Z,4.90
2018-10-21T20:08:01.352Z,4.80
2018-10-21T20:10:36.298Z,4.80
2018-10-21T20:13:12.169Z,4.80
2018-10-21T20:15:48.713Z,4.60
2018-10-21T20:18:23.915Z,4.60
2018-10-21T20:20:58.840Z,4.60
2018-10-21T20:23:34.838Z,4.70
2018-10-21T20:26:12.826Z,4.70
2018-10-21T20:28:48.340Z,4.60
2018-10-21T20:31:24.222Z,4.40
2018-10-21T20:33:59.230Z,4.30
2018-10-21T20:36:33.937Z,4.30
2018-10-21T20:39:09.762Z,4.20
2018-10-21T20:41:46.522Z,4.20
2018-10-21T20:44:22.254Z,4.10
2018-10-21T20:46:59.235Z,4.30
2018-10-21T20:49:34.471Z,4.10
2018-10-21T20:52:10.498Z,3.80
2018-10-21T20:54:48.114Z,3.70
2018-10-21T20:57:24.144Z,3.60
2018-10-21T21:00:00.564Z,3.60
2018-10-21T21:02:35.638Z,3.60
2018-10-21T21:05:10.591Z,3.60
2018-10-21T21:07:45.358Z,3.60
2018-10-21T21:10:20.777Z,3.50
2018-10-21T21:12:57.150Z,3.30
2018-10-21T21:15:31.974Z,3.40
2018-10-21T21:18:06.800Z,3.40
2018-10-21T21:20:41.773Z,3.60
2018-10-21T21:23:16.897Z,3.50
2018-10-21T21:25:51.709Z,3.50
2018-10-21T21:28:26.740Z,3.50
2018-10-21T21:31:01.243Z,3.60
2018-10-21T21:33:36.085Z,3.50
2018-10-21T21:36:11.904Z,3.20
2018-10-21T21:38:46.459Z,3.10
2018-10-21T21:41:21.202Z,3.10
2018-10-21T21:43:56.191Z,3.10
2018-10-21T21:46:31.200Z,3.10
2018-10-21T21:49:06.575Z,3.10
2018-10-21T21:51:43.773Z,3.20
2018-10-21T21:54:19.088Z,3.30
2018-10-21T21:56:54.150Z,3.20
2018-10-21T21:59:29.273Z,3.00
2018-10-21T22:02:04.211Z,2.90
2018-10-21T22:04:41.641Z,2.90
2018-10-21T22:07:16.290Z,3.00
2018-10-21T22:09:51.214Z,3.00
2018-10-21T22:12:26.012Z,3.00
2018-10-21T22:15:00.798Z,3.00
2018-10-21T22:17:36.156Z,2.80
2018-10-21T22:20:11.721Z,2.60
2018-10-21T22:22:46.538Z,2.50
2018-10-21T22:25:21.543Z,2.50
2018-10-21T22:27:56.560Z,2.50
2018-10-21T22:30:31.419Z,2.40
2018-10-21T22:33:06.250Z,2.50
2018-10-21T22:35:41.401Z,2.40
2018-10-21T22:38:16.488Z,2.40
2018-10-21T22:40:51.284Z,2.40
2018-10-21T22:43:26.284Z,2.50
2018-10-21T22:46:01.037Z,2.50
2018-10-21T22:48:35.867Z,2.50
2018-10-21T22:51:10.858Z,2.50
2018-10-21T22:53:45.501Z,2.30
2018-10-21T22:56:20.128Z,2.10
2018-10-21T22:58:55.170Z,2.10
2018-10-21T23:01:30.065Z,2.00
2018-10-21T23:04:04.940Z,2.10
2018-10-21T23:06:39.757Z,2.10
2018-10-21T23:09:14.788Z,2.10
2018-10-21T23:11:49.931Z,2.00
2018-10-21T23:14:24.561Z,2.10
2018-10-21T23:16:59.581Z,2.10
2018-10-21T23:19:42.590Z,2.10
2018-10-21T23:22:17.309Z,2.10
2018-10-21T23:24:52.242Z,1.90
2018-10-21T23:27:26.973Z,1.90
2018-10-21T23:30:01.942Z,2.00
2018-10-21T23:32:36.758Z,1.80
2018-10-21T23:35:11.650Z,1.60
2018-10-21T23:37:46.177Z,1.50
2018-10-21T23:40:21.182Z,1.50
2018-10-21T23:42:56.059Z,1.60
2018-10-21T23:45:30.793Z,1.50
2018-10-21T23:48:05.822Z,1.40
2018-10-21T23:50:40.533Z,1.50
2018-10-21T23:53:15.331Z,1.80
2018-10-21T23:55:50.065Z,1.90
2018-10-21T23:58:25.019Z,1.80
